sensor_id;sensor_type;location;lat;lon;timestamp;P1;durP1;ratioP1;P2;durP2;ratioP2
12725;SDS011;6427;49.754;6.106;2023-07-30T00:01:35;3.07;;;1.93;;
12725;SDS011;6427;49.754;6.106;2023-07-30T00:04:03;3.83;;;2.40;;
12725;SDS011;6427;49.754;6.106;2023-07-30T00:06:30;2.87;;;1.90;;
12725;SDS011;6427;49.754;6.106;2023-07-30T00:08:59;6.97;;;2.00;;
12725;SDS011;6427;49.754;6.106;2023-07-30T00:11:26;4.30;;;1.67;;
12725;SDS011;6427;49.754;6.106;2023-07-30T00:13:54;3.23;;;2.10;;
12725;SDS011;6427;49.754;6.106;2023-07-30T00:16:21;2.80;;;1.70;;
12725;SDS011;6427;49.754;6.106;2023-07-30T00:18:49;4.07;;;2.40;;
12725;SDS011;6427;49.754;6.106;2023-07-30T00:21:17;9.00;;;2.37;;
12725;SDS011;6427;49.754;6.106;2023-07-30T00:23:44;5.07;;;1.97;;
12725;SDS011;6427;49.754;6.106;2023-07-30T00:26:12;5.23;;;1.97;;
12725;SDS011;6427;49.754;6.106;2023-07-30T00:28:39;6.43;;;2.00;;
12725;SDS011;6427;49.754;6.106;2023-07-30T00:31:08;2.90;;;2.55;;
12725;SDS011;6427;49.754;6.106;2023-07-30T00:33:35;3.10;;;2.13;;
12725;SDS011;6427;49.754;6.106;2023-07-30T00:36:03;2.10;;;1.90;;
12725;SDS011;6427;49.754;6.106;2023-07-30T00:38:31;5.10;;;2.50;;
12725;SDS011;6427;49.754;6.106;2023-07-30T00:40:58;5.03;;;2.20;;
12725;SDS011;6427;49.754;6.106;2023-07-30T00:43:26;5.00;;;2.53;;
12725;SDS011;6427;49.754;6.106;2023-07-30T00:45:53;2.77;;;2.20;;
12725;SDS011;6427;49.754;6.106;2023-07-30T00:48:21;5.53;;;2.50;;
12725;SDS011;6427;49.754;6.106;2023-07-30T00:50:49;7.20;;;2.27;;
12725;SDS011;6427;49.754;6.106;2023-07-30T00:53:16;5.80;;;2.53;;
12725;SDS011;6427;49.754;6.106;2023-07-30T00:55:44;5.00;;;2.60;;
12725;SDS011;6427;49.754;6.106;2023-07-30T00:58:11;3.50;;;2.33;;
12725;SDS011;6427;49.754;6.106;2023-07-30T01:00:40;4.13;;;1.97;;
12725;SDS011;6427;49.754;6.106;2023-07-30T01:03:08;2.97;;;2.23;;
12725;SDS011;6427;49.754;6.106;2023-07-30T01:05:36;3.10;;;2.03;;
12725;SDS011;6427;49.754;6.106;2023-07-30T01:08:03;4.67;;;2.07;;
12725;SDS011;6427;49.754;6.106;2023-07-30T01:10:31;6.83;;;2.57;;
12725;SDS011;6427;49.754;6.106;2023-07-30T01:13:01;4.07;;;2.85;;
12725;SDS011;6427;49.754;6.106;2023-07-30T01:15:29;5.17;;;1.93;;
12725;SDS011;6427;49.754;6.106;2023-07-30T01:17:56;2.83;;;2.17;;
12725;SDS011;6427;49.754;6.106;2023-07-30T01:20:24;1.93;;;1.73;;
12725;SDS011;6427;49.754;6.106;2023-07-30T01:22:52;6.10;;;2.53;;
12725;SDS011;6427;49.754;6.106;2023-07-30T01:25:19;4.60;;;1.90;;
12725;SDS011;6427;49.754;6.106;2023-07-30T01:27:48;5.73;;;2.20;;
12725;SDS011;6427;49.754;6.106;2023-07-30T01:30:21;4.40;;;2.40;;
12725;SDS011;6427;49.754;6.106;2023-07-30T01:32:46;8.03;;;2.13;;
12725;SDS011;6427;49.754;6.106;2023-07-30T01:35:13;4.27;;;2.20;;
12725;SDS011;6427;49.754;6.106;2023-07-30T01:37:42;4.07;;;2.33;;
12725;SDS011;6427;49.754;6.106;2023-07-30T01:40:10;3.90;;;2.50;;
12725;SDS011;6427;49.754;6.106;2023-07-30T01:42:38;5.43;;;2.10;;
12725;SDS011;6427;49.754;6.106;2023-07-30T01:45:05;6.17;;;2.57;;
12725;SDS011;6427;49.754;6.106;2023-07-30T01:47:33;2.13;;;1.93;;
12725;SDS011;6427;49.754;6.106;2023-07-30T01:50:01;7.07;;;1.90;;
12725;SDS011;6427;49.754;6.106;2023-07-30T01:52:28;7.80;;;2.47;;
12725;SDS011;6427;49.754;6.106;2023-07-30T01:54:56;7.23;;;2.10;;
12725;SDS011;6427;49.754;6.106;2023-07-30T01:57:24;3.50;;;2.23;;
12725;SDS011;6427;49.754;6.106;2023-07-30T01:59:51;3.40;;;2.60;;
12725;SDS011;6427;49.754;6.106;2023-07-30T02:02:19;6.03;;;2.72;;
12725;SDS011;6427;49.754;6.106;2023-07-30T02:04:46;7.20;;;2.33;;
12725;SDS011;6427;49.754;6.106;2023-07-30T02:07:14;3.07;;;2.27;;
12725;SDS011;6427;49.754;6.106;2023-07-30T02:09:43;4.50;;;2.70;;
12725;SDS011;6427;49.754;6.106;2023-07-30T02:12:09;4.03;;;2.03;;
12725;SDS011;6427;49.754;6.106;2023-07-30T02:14:37;4.37;;;1.93;;
12725;SDS011;6427;49.754;6.106;2023-07-30T02:17:04;4.13;;;2.57;;
12725;SDS011;6427;49.754;6.106;2023-07-30T02:19:32;5.97;;;2.70;;
12725;SDS011;6427;49.754;6.106;2023-07-30T02:21:59;4.00;;;2.23;;
12725;SDS011;6427;49.754;6.106;2023-07-30T02:24:28;5.53;;;2.60;;
12725;SDS011;6427;49.754;6.106;2023-07-30T02:26:55;3.77;;;2.57;;
12725;SDS011;6427;49.754;6.106;2023-07-30T02:29:24;3.87;;;2.67;;
12725;SDS011;6427;49.754;6.106;2023-07-30T02:31:52;3.63;;;2.33;;
12725;SDS011;6427;49.754;6.106;2023-07-30T02:34:20;5.53;;;2.57;;
12725;SDS011;6427;49.754;6.106;2023-07-30T02:36:48;5.40;;;3.00;;
12725;SDS011;6427;49.754;6.106;2023-07-30T02:39:16;3.97;;;2.43;;
12725;SDS011;6427;49.754;6.106;2023-07-30T02:41:43;3.80;;;2.40;;
12725;SDS011;6427;49.754;6.106;2023-07-30T02:44:11;5.83;;;2.70;;
12725;SDS011;6427;49.754;6.106;2023-07-30T02:46:38;3.47;;;2.60;;
12725;SDS011;6427;49.754;6.106;2023-07-30T02:49:06;4.60;;;2.97;;
12725;SDS011;6427;49.754;6.106;2023-07-30T02:51:34;3.13;;;2.73;;
12725;SDS011;6427;49.754;6.106;2023-07-30T02:54:07;5.73;;;2.87;;
12725;SDS011;6427;49.754;6.106;2023-07-30T02:56:33;3.00;;;2.63;;
12725;SDS011;6427;49.754;6.106;2023-07-30T02:59:01;5.20;;;2.70;;
12725;SDS011;6427;49.754;6.106;2023-07-30T03:01:29;4.30;;;2.70;;
12725;SDS011;6427;49.754;6.106;2023-07-30T03:03:57;7.67;;;2.63;;
12725;SDS011;6427;49.754;6.106;2023-07-30T03:06:25;6.10;;;3.40;;
12725;SDS011;6427;49.754;6.106;2023-07-30T03:08:54;3.30;;;2.87;;
12725;SDS011;6427;49.754;6.106;2023-07-30T03:11:22;8.53;;;3.30;;
12725;SDS011;6427;49.754;6.106;2023-07-30T03:13:49;8.10;;;3.20;;
12725;SDS011;6427;49.754;6.106;2023-07-30T03:16:17;6.23;;;3.37;;
12725;SDS011;6427;49.754;6.106;2023-07-30T03:18:45;7.33;;;3.10;;
12725;SDS011;6427;49.754;6.106;2023-07-30T03:21:12;4.00;;;3.20;;
12725;SDS011;6427;49.754;6.106;2023-07-30T03:23:40;5.60;;;2.77;;
12725;SDS011;6427;49.754;6.106;2023-07-30T03:26:08;6.47;;;3.13;;
12725;SDS011;6427;49.754;6.106;2023-07-30T03:28:35;6.00;;;3.20;;
12725;SDS011;6427;49.754;6.106;2023-07-30T03:31:03;5.07;;;2.70;;
12725;SDS011;6427;49.754;6.106;2023-07-30T03:33:31;6.80;;;2.80;;
12725;SDS011;6427;49.754;6.106;2023-07-30T03:35:58;5.30;;;3.13;;
12725;SDS011;6427;49.754;6.106;2023-07-30T03:38:26;6.30;;;2.70;;
12725;SDS011;6427;49.754;6.106;2023-07-30T03:40:53;5.70;;;3.00;;
12725;SDS011;6427;49.754;6.106;2023-07-30T03:43:21;3.97;;;3.03;;
12725;SDS011;6427;49.754;6.106;2023-07-30T03:45:48;6.63;;;2.80;;
12725;SDS011;6427;49.754;6.106;2023-07-30T03:48:17;10.20;;;3.00;;
12725;SDS011;6427;49.754;6.106;2023-07-30T03:50:44;7.00;;;3.40;;
12725;SDS011;6427;49.754;6.106;2023-07-30T03:53:12;6.00;;;3.27;;
12725;SDS011;6427;49.754;6.106;2023-07-30T03:55:40;4.07;;;3.23;;
12725;SDS011;6427;49.754;6.106;2023-07-30T03:58:07;7.07;;;2.90;;
12725;SDS011;6427;49.754;6.106;2023-07-30T04:00:35;6.07;;;4.12;;
12725;SDS011;6427;49.754;6.106;2023-07-30T04:03:02;6.47;;;3.30;;
12725;SDS011;6427;49.754;6.106;2023-07-30T04:05:30;7.00;;;3.90;;
12725;SDS011;6427;49.754;6.106;2023-07-30T04:07:58;4.23;;;3.23;;
12725;SDS011;6427;49.754;6.106;2023-07-30T04:10:26;6.73;;;3.37;;
12725;SDS011;6427;49.754;6.106;2023-07-30T04:12:54;6.00;;;3.43;;
12725;SDS011;6427;49.754;6.106;2023-07-30T04:15:22;6.33;;;3.60;;
12725;SDS011;6427;49.754;6.106;2023-07-30T04:17:49;5.20;;;3.60;;
12725;SDS011;6427;49.754;6.106;2023-07-30T04:20:17;6.80;;;3.60;;
12725;SDS011;6427;49.754;6.106;2023-07-30T04:22:45;6.87;;;3.50;;
12725;SDS011;6427;49.754;6.106;2023-07-30T04:25:12;8.90;;;4.57;;
12725;SDS011;6427;49.754;6.106;2023-07-30T04:27:40;8.63;;;4.20;;
12725;SDS011;6427;49.754;6.106;2023-07-30T04:30:07;4.27;;;3.87;;
12725;SDS011;6427;49.754;6.106;2023-07-30T04:32:35;7.37;;;4.07;;
12725;SDS011;6427;49.754;6.106;2023-07-30T04:35:02;10.57;;;4.03;;
12725;SDS011;6427;49.754;6.106;2023-07-30T04:37:30;8.03;;;4.20;;
12725;SDS011;6427;49.754;6.106;2023-07-30T04:39:58;4.40;;;3.53;;
12725;SDS011;6427;49.754;6.106;2023-07-30T04:42:25;7.25;;;4.32;;
12725;SDS011;6427;49.754;6.106;2023-07-30T04:44:53;7.33;;;4.30;;
12725;SDS011;6427;49.754;6.106;2023-07-30T04:47:21;7.32;;;5.60;;
12725;SDS011;6427;49.754;6.106;2023-07-30T04:49:49;9.80;;;4.53;;
12725;SDS011;6427;49.754;6.106;2023-07-30T04:52:17;6.73;;;4.50;;
12725;SDS011;6427;49.754;6.106;2023-07-30T04:54:44;6.53;;;3.83;;
12725;SDS011;6427;49.754;6.106;2023-07-30T04:57:12;5.40;;;4.13;;
12725;SDS011;6427;49.754;6.106;2023-07-30T04:59:39;6.63;;;4.07;;
12725;SDS011;6427;49.754;6.106;2023-07-30T05:02:07;8.93;;;4.60;;
12725;SDS011;6427;49.754;6.106;2023-07-30T05:04:35;8.17;;;4.03;;
12725;SDS011;6427;49.754;6.106;2023-07-30T05:07:02;7.00;;;4.40;;
12725;SDS011;6427;49.754;6.106;2023-07-30T05:09:30;5.27;;;3.67;;
12725;SDS011;6427;49.754;6.106;2023-07-30T05:11:57;5.50;;;3.53;;
12725;SDS011;6427;49.754;6.106;2023-07-30T05:14:25;2.40;;;1.87;;
12725;SDS011;6427;49.754;6.106;2023-07-30T05:16:53;1.40;;;0.97;;
12725;SDS011;6427;49.754;6.106;2023-07-30T05:19:20;1.83;;;1.10;;
12725;SDS011;6427;49.754;6.106;2023-07-30T05:21:48;2.40;;;1.03;;
12725;SDS011;6427;49.754;6.106;2023-07-30T05:24:16;2.67;;;1.10;;
12725;SDS011;6427;49.754;6.106;2023-07-30T05:26:44;2.83;;;1.00;;
12725;SDS011;6427;49.754;6.106;2023-07-30T05:29:11;1.20;;;0.73;;
12725;SDS011;6427;49.754;6.106;2023-07-30T05:31:39;1.43;;;0.90;;
12725;SDS011;6427;49.754;6.106;2023-07-30T05:34:06;3.80;;;1.00;;
12725;SDS011;6427;49.754;6.106;2023-07-30T05:36:34;1.95;;;1.10;;
12725;SDS011;6427;49.754;6.106;2023-07-30T05:39:02;2.23;;;1.27;;
12725;SDS011;6427;49.754;6.106;2023-07-30T05:41:29;1.47;;;0.70;;
12725;SDS011;6427;49.754;6.106;2023-07-30T05:43:57;3.00;;;1.30;;
12725;SDS011;6427;49.754;6.106;2023-07-30T05:46:24;2.27;;;1.07;;
12725;SDS011;6427;49.754;6.106;2023-07-30T05:48:52;2.87;;;1.20;;
12725;SDS011;6427;49.754;6.106;2023-07-30T05:51:20;1.17;;;1.00;;
12725;SDS011;6427;49.754;6.106;2023-07-30T05:53:47;1.67;;;1.20;;
12725;SDS011;6427;49.754;6.106;2023-07-30T05:56:15;1.40;;;1.10;;
12725;SDS011;6427;49.754;6.106;2023-07-30T05:58:42;1.92;;;1.30;;
12725;SDS011;6427;49.754;6.106;2023-07-30T06:01:10;2.73;;;1.20;;
12725;SDS011;6427;49.754;6.106;2023-07-30T06:03:38;2.13;;;1.17;;
12725;SDS011;6427;49.754;6.106;2023-07-30T06:06:05;2.20;;;1.02;;
12725;SDS011;6427;49.754;6.106;2023-07-30T06:08:34;2.70;;;1.20;;
12725;SDS011;6427;49.754;6.106;2023-07-30T06:11:04;1.47;;;1.00;;
12725;SDS011;6427;49.754;6.106;2023-07-30T06:13:32;1.50;;;1.07;;
12725;SDS011;6427;49.754;6.106;2023-07-30T06:15:59;1.80;;;1.00;;
12725;SDS011;6427;49.754;6.106;2023-07-30T06:18:27;1.87;;;1.30;;
12725;SDS011;6427;49.754;6.106;2023-07-30T06:20:55;3.63;;;1.07;;
12725;SDS011;6427;49.754;6.106;2023-07-30T06:23:22;1.87;;;1.27;;
12725;SDS011;6427;49.754;6.106;2023-07-30T06:25:50;4.93;;;1.30;;
12725;SDS011;6427;49.754;6.106;2023-07-30T06:28:17;5.37;;;1.45;;
12725;SDS011;6427;49.754;6.106;2023-07-30T06:30:45;2.90;;;0.80;;
12725;SDS011;6427;49.754;6.106;2023-07-30T06:33:13;3.83;;;1.37;;
12725;SDS011;6427;49.754;6.106;2023-07-30T06:35:42;2.63;;;1.40;;
12725;SDS011;6427;49.754;6.106;2023-07-30T06:38:09;3.67;;;1.13;;
12725;SDS011;6427;49.754;6.106;2023-07-30T06:40:37;4.83;;;1.20;;
12725;SDS011;6427;49.754;6.106;2023-07-30T06:43:04;2.00;;;1.30;;
12725;SDS011;6427;49.754;6.106;2023-07-30T06:45:33;1.87;;;0.90;;
12725;SDS011;6427;49.754;6.106;2023-07-30T06:48:00;5.10;;;1.10;;
12725;SDS011;6427;49.754;6.106;2023-07-30T06:50:28;2.37;;;1.20;;
12725;SDS011;6427;49.754;6.106;2023-07-30T06:52:56;5.60;;;1.00;;
12725;SDS011;6427;49.754;6.106;2023-07-30T06:55:23;1.62;;;1.00;;
12725;SDS011;6427;49.754;6.106;2023-07-30T06:57:51;2.20;;;1.20;;
12725;SDS011;6427;49.754;6.106;2023-07-30T07:00:18;5.23;;;1.23;;
12725;SDS011;6427;49.754;6.106;2023-07-30T07:02:46;2.10;;;1.00;;
12725;SDS011;6427;49.754;6.106;2023-07-30T07:05:14;5.15;;;1.10;;
12725;SDS011;6427;49.754;6.106;2023-07-30T07:07:41;2.90;;;1.30;;
12725;SDS011;6427;49.754;6.106;2023-07-30T07:10:09;5.80;;;1.43;;
12725;SDS011;6427;49.754;6.106;2023-07-30T07:12:37;6.60;;;1.40;;
12725;SDS011;6427;49.754;6.106;2023-07-30T07:15:05;5.97;;;1.37;;
12725;SDS011;6427;49.754;6.106;2023-07-30T07:17:32;5.53;;;1.57;;
12725;SDS011;6427;49.754;6.106;2023-07-30T07:20:00;4.23;;;1.50;;
12725;SDS011;6427;49.754;6.106;2023-07-30T07:22:28;10.37;;;1.73;;
12725;SDS011;6427;49.754;6.106;2023-07-30T07:24:56;5.90;;;1.50;;
12725;SDS011;6427;49.754;6.106;2023-07-30T07:27:24;6.80;;;1.30;;
12725;SDS011;6427;49.754;6.106;2023-07-30T07:29:52;6.60;;;1.53;;
12725;SDS011;6427;49.754;6.106;2023-07-30T07:32:19;7.90;;;1.53;;
12725;SDS011;6427;49.754;6.106;2023-07-30T07:34:47;5.30;;;1.30;;
12725;SDS011;6427;49.754;6.106;2023-07-30T07:37:15;7.17;;;1.43;;
12725;SDS011;6427;49.754;6.106;2023-07-30T07:39:43;7.50;;;2.00;;
12725;SDS011;6427;49.754;6.106;2023-07-30T07:42:11;8.00;;;1.30;;
12725;SDS011;6427;49.754;6.106;2023-07-30T07:44:39;5.03;;;1.50;;
12725;SDS011;6427;49.754;6.106;2023-07-30T07:47:07;6.97;;;2.12;;
12725;SDS011;6427;49.754;6.106;2023-07-30T07:49:36;10.77;;;2.30;;
12725;SDS011;6427;49.754;6.106;2023-07-30T07:52:03;3.93;;;1.43;;
12725;SDS011;6427;49.754;6.106;2023-07-30T07:54:32;5.93;;;1.80;;
12725;SDS011;6427;49.754;6.106;2023-07-30T07:56:59;8.07;;;1.80;;
12725;SDS011;6427;49.754;6.106;2023-07-30T07:59:27;6.07;;;1.60;;
12725;SDS011;6427;49.754;6.106;2023-07-30T08:01:54;5.80;;;1.67;;
12725;SDS011;6427;49.754;6.106;2023-07-30T08:04:22;8.45;;;1.98;;
12725;SDS011;6427;49.754;6.106;2023-07-30T08:06:50;8.70;;;2.13;;
12725;SDS011;6427;49.754;6.106;2023-07-30T08:09:17;5.07;;;1.77;;
12725;SDS011;6427;49.754;6.106;2023-07-30T08:11:45;6.03;;;1.53;;
12725;SDS011;6427;49.754;6.106;2023-07-30T08:14:12;9.53;;;1.87;;
12725;SDS011;6427;49.754;6.106;2023-07-30T08:16:40;7.57;;;2.23;;
12725;SDS011;6427;49.754;6.106;2023-07-30T08:19:08;7.83;;;1.97;;
12725;SDS011;6427;49.754;6.106;2023-07-30T08:21:35;7.17;;;2.03;;
12725;SDS011;6427;49.754;6.106;2023-07-30T08:24:04;7.80;;;1.80;;
12725;SDS011;6427;49.754;6.106;2023-07-30T08:26:31;8.83;;;1.63;;
12725;SDS011;6427;49.754;6.106;2023-07-30T08:28:59;7.15;;;1.73;;
12725;SDS011;6427;49.754;6.106;2023-07-30T08:31:26;9.40;;;2.20;;
12725;SDS011;6427;49.754;6.106;2023-07-30T08:33:55;3.17;;;1.60;;
12725;SDS011;6427;49.754;6.106;2023-07-30T08:36:22;7.53;;;1.80;;
12725;SDS011;6427;49.754;6.106;2023-07-30T08:38:50;4.57;;;1.50;;
12725;SDS011;6427;49.754;6.106;2023-07-30T08:41:18;5.90;;;1.63;;
12725;SDS011;6427;49.754;6.106;2023-07-30T08:43:45;5.67;;;1.70;;
12725;SDS011;6427;49.754;6.106;2023-07-30T08:46:13;8.57;;;2.00;;
12725;SDS011;6427;49.754;6.106;2023-07-30T08:48:40;5.60;;;1.87;;
12725;SDS011;6427;49.754;6.106;2023-07-30T08:51:08;5.53;;;1.53;;
12725;SDS011;6427;49.754;6.106;2023-07-30T08:53:36;8.50;;;1.80;;
12725;SDS011;6427;49.754;6.106;2023-07-30T08:56:04;5.72;;;1.67;;
12725;SDS011;6427;49.754;6.106;2023-07-30T08:58:31;6.73;;;1.70;;
12725;SDS011;6427;49.754;6.106;2023-07-30T09:00:58;9.00;;;2.00;;
12725;SDS011;6427;49.754;6.106;2023-07-30T09:03:26;5.50;;;2.00;;
12725;SDS011;6427;49.754;6.106;2023-07-30T09:05:54;4.70;;;1.57;;
12725;SDS011;6427;49.754;6.106;2023-07-30T09:08:22;8.03;;;1.70;;
12725;SDS011;6427;49.754;6.106;2023-07-30T09:10:50;5.03;;;1.57;;
12725;SDS011;6427;49.754;6.106;2023-07-30T09:13:21;9.57;;;1.70;;
12725;SDS011;6427;49.754;6.106;2023-07-30T09:15:48;2.27;;;0.90;;
12725;SDS011;6427;49.754;6.106;2023-07-30T09:18:19;7.30;;;1.70;;
12725;SDS011;6427;49.754;6.106;2023-07-30T09:20:46;4.97;;;1.50;;
12725;SDS011;6427;49.754;6.106;2023-07-30T09:23:14;5.30;;;1.70;;
12725;SDS011;6427;49.754;6.106;2023-07-30T09:25:41;7.00;;;1.80;;
12725;SDS011;6427;49.754;6.106;2023-07-30T09:28:10;4.37;;;1.70;;
12725;SDS011;6427;49.754;6.106;2023-07-30T09:30:36;4.13;;;1.53;;
12725;SDS011;6427;49.754;6.106;2023-07-30T09:33:04;6.03;;;1.80;;
12725;SDS011;6427;49.754;6.106;2023-07-30T09:35:32;7.70;;;1.90;;
12725;SDS011;6427;49.754;6.106;2023-07-30T09:38:00;7.40;;;1.70;;
12725;SDS011;6427;49.754;6.106;2023-07-30T09:40:30;6.60;;;1.90;;
12725;SDS011;6427;49.754;6.106;2023-07-30T09:42:57;4.87;;;1.80;;
12725;SDS011;6427;49.754;6.106;2023-07-30T09:45:25;6.85;;;1.90;;
12725;SDS011;6427;49.754;6.106;2023-07-30T09:47:53;7.57;;;2.00;;
12725;SDS011;6427;49.754;6.106;2023-07-30T09:50:20;3.57;;;1.73;;
12725;SDS011;6427;49.754;6.106;2023-07-30T09:52:48;4.83;;;1.80;;
12725;SDS011;6427;49.754;6.106;2023-07-30T09:55:15;4.07;;;1.80;;
12725;SDS011;6427;49.754;6.106;2023-07-30T09:57:43;10.47;;;1.90;;
12725;SDS011;6427;49.754;6.106;2023-07-30T10:00:10;6.67;;;1.60;;
12725;SDS011;6427;49.754;6.106;2023-07-30T10:02:39;6.45;;;2.12;;
12725;SDS011;6427;49.754;6.106;2023-07-30T10:05:08;5.13;;;1.87;;
12725;SDS011;6427;49.754;6.106;2023-07-30T10:07:59;5.37;;;1.50;;
12725;SDS011;6427;49.754;6.106;2023-07-30T10:10:25;4.17;;;1.77;;
12725;SDS011;6427;49.754;6.106;2023-07-30T10:12:53;8.23;;;1.75;;
12725;SDS011;6427;49.754;6.106;2023-07-30T10:15:20;5.17;;;1.53;;
12725;SDS011;6427;49.754;6.106;2023-07-30T10:17:50;6.07;;;1.70;;
12725;SDS011;6427;49.754;6.106;2023-07-30T10:20:23;6.80;;;1.63;;
12725;SDS011;6427;49.754;6.106;2023-07-30T10:22:54;5.13;;;1.60;;
12725;SDS011;6427;49.754;6.106;2023-07-30T10:25:22;5.60;;;1.57;;
12725;SDS011;6427;49.754;6.106;2023-07-30T10:27:50;9.03;;;2.07;;
12725;SDS011;6427;49.754;6.106;2023-07-30T10:30:18;5.67;;;1.30;;
12725;SDS011;6427;49.754;6.106;2023-07-30T10:35:41;3.13;;;1.40;;
12725;SDS011;6427;49.754;6.106;2023-07-30T10:38:29;7.10;;;2.83;;
12725;SDS011;6427;49.754;6.106;2023-07-30T10:41:07;5.07;;;1.20;;
12725;SDS011;6427;49.754;6.106;2023-07-30T10:43:34;7.97;;;1.43;;
12725;SDS011;6427;49.754;6.106;2023-07-30T10:46:02;6.40;;;1.93;;
12725;SDS011;6427;49.754;6.106;2023-07-30T10:48:30;4.37;;;1.67;;
12725;SDS011;6427;49.754;6.106;2023-07-30T10:50:57;6.33;;;1.57;;
12725;SDS011;6427;49.754;6.106;2023-07-30T10:53:25;8.98;;;1.70;;
12725;SDS011;6427;49.754;6.106;2023-07-30T10:55:53;3.73;;;1.20;;
12725;SDS011;6427;49.754;6.106;2023-07-30T10:58:20;10.43;;;1.90;;
12725;SDS011;6427;49.754;6.106;2023-07-30T11:00:48;6.90;;;1.73;;
12725;SDS011;6427;49.754;6.106;2023-07-30T11:03:15;7.63;;;1.90;;
12725;SDS011;6427;49.754;6.106;2023-07-30T11:05:46;5.53;;;1.50;;
12725;SDS011;6427;49.754;6.106;2023-07-30T11:08:10;5.37;;;1.50;;
12725;SDS011;6427;49.754;6.106;2023-07-30T11:10:41;6.07;;;1.70;;
12725;SDS011;6427;49.754;6.106;2023-07-30T11:13:09;5.30;;;1.80;;
12725;SDS011;6427;49.754;6.106;2023-07-30T11:15:40;6.03;;;1.93;;
12725;SDS011;6427;49.754;6.106;2023-07-30T11:18:07;4.93;;;1.50;;
12725;SDS011;6427;49.754;6.106;2023-07-30T11:20:35;6.40;;;1.98;;
12725;SDS011;6427;49.754;6.106;2023-07-30T11:23:03;4.70;;;1.53;;
12725;SDS011;6427;49.754;6.106;2023-07-30T11:25:30;6.47;;;1.73;;
12725;SDS011;6427;49.754;6.106;2023-07-30T11:27:58;6.33;;;1.73;;
12725;SDS011;6427;49.754;6.106;2023-07-30T11:30:26;8.50;;;1.73;;
12725;SDS011;6427;49.754;6.106;2023-07-30T11:32:54;3.47;;;1.20;;
12725;SDS011;6427;49.754;6.106;2023-07-30T11:35:22;6.13;;;1.23;;
12725;SDS011;6427;49.754;6.106;2023-07-30T11:37:50;5.37;;;1.27;;
12725;SDS011;6427;49.754;6.106;2023-07-30T11:40:17;8.30;;;1.30;;
12725;SDS011;6427;49.754;6.106;2023-07-30T11:42:45;5.33;;;1.50;;
12725;SDS011;6427;49.754;6.106;2023-07-30T11:45:20;5.77;;;1.33;;
12725;SDS011;6427;49.754;6.106;2023-07-30T11:47:47;7.63;;;1.53;;
12725;SDS011;6427;49.754;6.106;2023-07-30T11:50:16;6.37;;;1.37;;
12725;SDS011;6427;49.754;6.106;2023-07-30T11:52:56;5.20;;;1.30;;
12725;SDS011;6427;49.754;6.106;2023-07-30T11:55:23;5.57;;;1.30;;
12725;SDS011;6427;49.754;6.106;2023-07-30T11:57:51;5.10;;;1.20;;
12725;SDS011;6427;49.754;6.106;2023-07-30T12:00:21;5.63;;;1.30;;
12725;SDS011;6427;49.754;6.106;2023-07-30T12:02:50;6.80;;;1.70;;
12725;SDS011;6427;49.754;6.106;2023-07-30T12:05:17;5.23;;;1.20;;
12725;SDS011;6427;49.754;6.106;2023-07-30T12:07:46;5.03;;;1.50;;
12725;SDS011;6427;49.754;6.106;2023-07-30T12:10:13;5.87;;;1.20;;
12725;SDS011;6427;49.754;6.106;2023-07-30T12:12:43;5.53;;;1.60;;
12725;SDS011;6427;49.754;6.106;2023-07-30T12:15:11;8.48;;;1.80;;
12725;SDS011;6427;49.754;6.106;2023-07-30T12:17:38;4.80;;;1.43;;
12725;SDS011;6427;49.754;6.106;2023-07-30T12:20:06;5.30;;;1.20;;
12725;SDS011;6427;49.754;6.106;2023-07-30T12:22:34;6.77;;;1.67;;
12725;SDS011;6427;49.754;6.106;2023-07-30T12:25:04;4.77;;;1.23;;
12725;SDS011;6427;49.754;6.106;2023-07-30T12:27:29;4.03;;;1.20;;
12725;SDS011;6427;49.754;6.106;2023-07-30T12:29:56;6.33;;;1.47;;
12725;SDS011;6427;49.754;6.106;2023-07-30T12:32:24;4.17;;;0.87;;
12725;SDS011;6427;49.754;6.106;2023-07-30T12:34:51;4.53;;;1.20;;
12725;SDS011;6427;49.754;6.106;2023-07-30T12:37:19;4.50;;;1.20;;
12725;SDS011;6427;49.754;6.106;2023-07-30T12:39:47;6.27;;;1.00;;
12725;SDS011;6427;49.754;6.106;2023-07-30T12:42:14;3.90;;;1.07;;
12725;SDS011;6427;49.754;6.106;2023-07-30T12:44:42;5.50;;;1.10;;
12725;SDS011;6427;49.754;6.106;2023-07-30T12:47:09;6.17;;;1.10;;
12725;SDS011;6427;49.754;6.106;2023-07-30T12:49:37;2.70;;;0.90;;
12725;SDS011;6427;49.754;6.106;2023-07-30T12:52:05;3.17;;;1.07;;
12725;SDS011;6427;49.754;6.106;2023-07-30T12:54:32;3.87;;;1.00;;
12725;SDS011;6427;49.754;6.106;2023-07-30T12:57:00;4.37;;;1.25;;
12725;SDS011;6427;49.754;6.106;2023-07-30T12:59:28;3.95;;;1.20;;
12725;SDS011;6427;49.754;6.106;2023-07-30T13:01:56;4.00;;;1.13;;
12725;SDS011;6427;49.754;6.106;2023-07-30T13:04:24;4.37;;;1.13;;
12725;SDS011;6427;49.754;6.106;2023-07-30T13:06:51;5.13;;;0.97;;
12725;SDS011;6427;49.754;6.106;2023-07-30T13:09:19;3.83;;;1.20;;
12725;SDS011;6427;49.754;6.106;2023-07-30T13:11:46;5.28;;;1.35;;
12725;SDS011;6427;49.754;6.106;2023-07-30T13:14:14;7.57;;;1.30;;
12725;SDS011;6427;49.754;6.106;2023-07-30T13:16:41;4.17;;;1.10;;
12725;SDS011;6427;49.754;6.106;2023-07-30T13:19:09;5.25;;;1.45;;
12725;SDS011;6427;49.754;6.106;2023-07-30T13:21:37;3.90;;;1.27;;
12725;SDS011;6427;49.754;6.106;2023-07-30T13:24:05;3.00;;;1.13;;
12725;SDS011;6427;49.754;6.106;2023-07-30T13:26:33;3.23;;;1.00;;
12725;SDS011;6427;49.754;6.106;2023-07-30T13:29:00;2.07;;;1.00;;
12725;SDS011;6427;49.754;6.106;2023-07-30T13:31:28;4.47;;;1.23;;
12725;SDS011;6427;49.754;6.106;2023-07-30T13:33:56;3.10;;;1.23;;
12725;SDS011;6427;49.754;6.106;2023-07-30T13:36:24;4.83;;;1.50;;
12725;SDS011;6427;49.754;6.106;2023-07-30T13:38:51;3.75;;;1.45;;
12725;SDS011;6427;49.754;6.106;2023-07-30T13:41:19;4.70;;;1.40;;
12725;SDS011;6427;49.754;6.106;2023-07-30T13:43:47;6.60;;;1.07;;
12725;SDS011;6427;49.754;6.106;2023-07-30T13:46:14;4.70;;;1.30;;
12725;SDS011;6427;49.754;6.106;2023-07-30T13:48:42;5.30;;;1.40;;
12725;SDS011;6427;49.754;6.106;2023-07-30T13:51:09;3.90;;;1.10;;
12725;SDS011;6427;49.754;6.106;2023-07-30T13:53:37;5.23;;;1.13;;
12725;SDS011;6427;49.754;6.106;2023-07-30T13:56:05;5.07;;;1.50;;
12725;SDS011;6427;49.754;6.106;2023-07-30T13:58:32;4.20;;;1.10;;
12725;SDS011;6427;49.754;6.106;2023-07-30T14:01:00;5.23;;;0.90;;
12725;SDS011;6427;49.754;6.106;2023-07-30T14:03:27;4.63;;;1.20;;
12725;SDS011;6427;49.754;6.106;2023-07-30T14:05:56;4.43;;;1.30;;
12725;SDS011;6427;49.754;6.106;2023-07-30T14:08:23;3.47;;;1.27;;
12725;SDS011;6427;49.754;6.106;2023-07-30T14:10:51;4.27;;;1.13;;
12725;SDS011;6427;49.754;6.106;2023-07-30T14:13:18;4.70;;;1.20;;
12725;SDS011;6427;49.754;6.106;2023-07-30T14:15:46;4.37;;;1.27;;
12725;SDS011;6427;49.754;6.106;2023-07-30T14:18:14;6.05;;;1.23;;
12725;SDS011;6427;49.754;6.106;2023-07-30T14:20:41;3.80;;;1.20;;
12725;SDS011;6427;49.754;6.106;2023-07-30T14:23:09;5.05;;;1.27;;
12725;SDS011;6427;49.754;6.106;2023-07-30T14:25:37;4.57;;;1.20;;
12725;SDS011;6427;49.754;6.106;2023-07-30T14:28:04;3.53;;;1.17;;
12725;SDS011;6427;49.754;6.106;2023-07-30T14:30:32;3.25;;;1.10;;
12725;SDS011;6427;49.754;6.106;2023-07-30T14:33:01;2.93;;;1.03;;
12725;SDS011;6427;49.754;6.106;2023-07-30T14:35:28;4.70;;;1.27;;
12725;SDS011;6427;49.754;6.106;2023-07-30T14:37:56;4.25;;;1.20;;
12725;SDS011;6427;49.754;6.106;2023-07-30T14:40:24;5.47;;;1.10;;
12725;SDS011;6427;49.754;6.106;2023-07-30T14:42:51;4.35;;;1.15;;
12725;SDS011;6427;49.754;6.106;2023-07-30T14:45:19;3.47;;;1.10;;
12725;SDS011;6427;49.754;6.106;2023-07-30T14:47:47;5.53;;;1.27;;
12725;SDS011;6427;49.754;6.106;2023-07-30T14:50:15;2.53;;;1.10;;
12725;SDS011;6427;49.754;6.106;2023-07-30T14:52:42;2.87;;;0.97;;
12725;SDS011;6427;49.754;6.106;2023-07-30T14:55:10;4.60;;;1.20;;
12725;SDS011;6427;49.754;6.106;2023-07-30T14:57:38;3.60;;;1.20;;
12725;SDS011;6427;49.754;6.106;2023-07-30T15:00:05;3.23;;;0.80;;
12725;SDS011;6427;49.754;6.106;2023-07-30T15:02:33;3.47;;;1.20;;
12725;SDS011;6427;49.754;6.106;2023-07-30T15:05:00;4.53;;;1.40;;
12725;SDS011;6427;49.754;6.106;2023-07-30T15:07:28;3.20;;;1.10;;